sensor_id;sensor_type;location;lat;lon;timestamp;temperature;humidity
75281;HTU21D;63874;47.230;39.620;2022-11-15T00:00:48;2.69;66.06
75281;HTU21D;63874;47.230;39.620;2022-11-15T00:03:33;2.65;66.25
75281;HTU21D;63874;47.230;39.620;2022-11-15T00:06:17;2.61;66.33
75281;HTU21D;63874;47.230;39.620;2022-11-15T00:09:02;2.57;66.45
75281;HTU21D;63874;47.230;39.620;2022-11-15T00:11:47;2.58;66.51
75281;HTU21D;63874;47.230;39.620;2022-11-15T00:14:31;2.52;66.47
75281;HTU21D;63874;47.230;39.620;2022-11-15T00:17:15;2.47;66.61
75281;HTU21D;63874;47.230;39.620;2022-11-15T00:20:00;2.43;66.76
75281;HTU21D;63874;47.230;39.620;2022-11-15T00:22:44;2.42;66.81
75281;HTU21D;63874;47.230;39.620;2022-11-15T00:25:29;2.42;66.85
75281;HTU21D;63874;47.230;39.620;2022-11-15T00:28:13;2.40;66.92
75281;HTU21D;63874;47.230;39.620;2022-11-15T00:31:03;2.42;66.87
75281;HTU21D;63874;47.230;39.620;2022-11-15T00:33:47;2.36;66.98
75281;HTU21D;63874;47.230;39.620;2022-11-15T00:36:33;2.32;67.02
75281;HTU21D;63874;47.230;39.620;2022-11-15T00:39:18;2.31;67.20
75281;HTU21D;63874;47.230;39.620;2022-11-15T00:42:03;2.29;67.15
75281;HTU21D;63874;47.230;39.620;2022-11-15T00:44:47;2.26;67.22
75281;HTU21D;63874;47.230;39.620;2022-11-15T00:47:32;2.28;67.36
75281;HTU21D;63874;47.230;39.620;2022-11-15T00:50:16;2.24;67.36
75281;HTU21D;63874;47.230;39.620;2022-11-15T00:53:01;2.23;67.44
75281;HTU21D;63874;47.230;39.620;2022-11-15T00:55:46;2.20;67.50
75281;HTU21D;63874;47.230;39.620;2022-11-15T00:58:30;2.19;67.53
75281;HTU21D;63874;47.230;39.620;2022-11-15T01:01:15;2.13;67.65
75281;HTU21D;63874;47.230;39.620;2022-11-15T01:03:59;2.10;67.63
75281;HTU21D;63874;47.230;39.620;2022-11-15T01:06:44;2.13;67.66
75281;HTU21D;63874;47.230;39.620;2022-11-15T01:09:28;2.11;67.78
75281;HTU21D;63874;47.230;39.620;2022-11-15T01:12:13;2.09;67.78
75281;HTU21D;63874;47.230;39.620;2022-11-15T01:14:58;2.05;67.85
75281;HTU21D;63874;47.230;39.620;2022-11-15T01:17:42;2.00;67.88
75281;HTU21D;63874;47.230;39.620;2022-11-15T01:20:27;1.94;68.05
75281;HTU21D;63874;47.230;39.620;2022-11-15T01:23:11;1.86;68.16
75281;HTU21D;63874;47.230;39.620;2022-11-15T01:26:00;1.84;68.21
75281;HTU21D;63874;47.230;39.620;2022-11-15T01:28:45;1.79;68.24
75281;HTU21D;63874;47.230;39.620;2022-11-15T01:31:29;1.79;68.26
75281;HTU21D;63874;47.230;39.620;2022-11-15T01:34:16;1.73;68.36
75281;HTU21D;63874;47.230;39.620;2022-11-15T01:37:01;1.68;68.60
75281;HTU21D;63874;47.230;39.620;2022-11-15T01:39:45;1.66;68.91
75281;HTU21D;63874;47.230;39.620;2022-11-15T01:42:29;1.58;68.84
75281;HTU21D;63874;47.230;39.620;2022-11-15T01:45:15;1.56;69.23
75281;HTU21D;63874;47.230;39.620;2022-11-15T01:47:59;1.51;69.25
75281;HTU21D;63874;47.230;39.620;2022-11-15T01:50:44;1.51;69.42
75281;HTU21D;63874;47.230;39.620;2022-11-15T01:53:29;1.51;69.36
75281;HTU21D;63874;47.230;39.620;2022-11-15T01:56:28;1.47;69.40
75281;HTU21D;63874;47.230;39.620;2022-11-15T01:59:14;1.42;69.63
75281;HTU21D;63874;47.230;39.620;2022-11-15T02:01:59;1.39;69.56
75281;HTU21D;63874;47.230;39.620;2022-11-15T02:04:46;1.35;69.59
75281;HTU21D;63874;47.230;39.620;2022-11-15T02:07:32;1.36;69.85
75281;HTU21D;63874;47.230;39.620;2022-11-15T02:10:20;1.36;69.65
75281;HTU21D;63874;47.230;39.620;2022-11-15T02:13:05;1.36;69.69
75281;HTU21D;63874;47.230;39.620;2022-11-15T02:19:28;1.34;69.80
75281;HTU21D;63874;47.230;39.620;2022-11-15T02:25:35;1.29;69.65
75281;HTU21D;63874;47.230;39.620;2022-11-15T02:31:49;1.21;69.65
75281;HTU21D;63874;47.230;39.620;2022-11-15T02:34:45;1.18;69.66
75281;HTU21D;63874;47.230;39.620;2022-11-15T02:37:45;1.14;69.70
75281;HTU21D;63874;47.230;39.620;2022-11-15T02:46:42;1.12;69.81
75281;HTU21D;63874;47.230;39.620;2022-11-15T02:49:58;1.04;69.79
75281;HTU21D;63874;47.230;39.620;2022-11-15T02:52:45;1.01;69.81
75281;HTU21D;63874;47.230;39.620;2022-11-15T02:55:38;1.01;69.75
75281;HTU21D;63874;47.230;39.620;2022-11-15T02:59:04;1.02;69.74
75281;HTU21D;63874;47.230;39.620;2022-11-15T03:05:02;1.02;69.36
75281;HTU21D;63874;47.230;39.620;2022-11-15T03:11:14;0.96;69.41
75281;HTU21D;63874;47.230;39.620;2022-11-15T03:17:22;0.91;69.43
75281;HTU21D;63874;47.230;39.620;2022-11-15T03:20:08;0.88;69.43
75281;HTU21D;63874;47.230;39.620;2022-11-15T03:22:57;0.88;69.32
75281;HTU21D;63874;47.230;39.620;2022-11-15T03:25:46;0.88;69.16
75281;HTU21D;63874;47.230;39.620;2022-11-15T03:28:42;0.86;69.07
75281;HTU21D;63874;47.230;39.620;2022-11-15T03:31:32;0.83;69.02
75281;HTU21D;63874;47.230;39.620;2022-11-15T03:34:47;0.83;68.88
75281;HTU21D;63874;47.230;39.620;2022-11-15T03:37:53;0.83;68.73
75281;HTU21D;63874;47.230;39.620;2022-11-15T03:40:48;0.78;68.84
75281;HTU21D;63874;47.230;39.620;2022-11-15T03:47:34;0.69;68.94
75281;HTU21D;63874;47.230;39.620;2022-11-15T03:50:21;0.66;68.96
75281;HTU21D;63874;47.230;39.620;2022-11-15T03:53:06;0.65;68.89
75281;HTU21D;63874;47.230;39.620;2022-11-15T03:55:50;0.64;68.79
75281;HTU21D;63874;47.230;39.620;2022-11-15T03:58:35;0.65;68.71
75281;HTU21D;63874;47.230;39.620;2022-11-15T04:01:19;0.64;68.62
75281;HTU21D;63874;47.230;39.620;2022-11-15T04:04:07;0.66;68.26
75281;HTU21D;63874;47.230;39.620;2022-11-15T04:06:52;0.62;68.42
75281;HTU21D;63874;47.230;39.620;2022-11-15T04:09:36;0.61;68.48
75281;HTU21D;63874;47.230;39.620;2022-11-15T04:12:43;0.59;68.55
75281;HTU21D;63874;47.230;39.620;2022-11-15T04:15:30;0.57;68.56
75281;HTU21D;63874;47.230;39.620;2022-11-15T04:18:14;0.55;68.57
75281;HTU21D;63874;47.230;39.620;2022-11-15T04:20:59;0.55;68.58
75281;HTU21D;63874;47.230;39.620;2022-11-15T04:24:02;0.54;68.51
75281;HTU21D;63874;47.230;39.620;2022-11-15T04:26:50;0.57;68.43
75281;HTU21D;63874;47.230;39.620;2022-11-15T04:29:34;0.55;68.33
75281;HTU21D;63874;47.230;39.620;2022-11-15T04:32:18;0.55;68.29
75281;HTU21D;63874;47.230;39.620;2022-11-15T04:35:03;0.53;68.30
75281;HTU21D;63874;47.230;39.620;2022-11-15T04:37:48;0.52;68.27
75281;HTU21D;63874;47.230;39.620;2022-11-15T04:40:32;0.49;68.29
75281;HTU21D;63874;47.230;39.620;2022-11-15T04:43:16;0.44;68.52
75281;HTU21D;63874;47.230;39.620;2022-11-15T04:46:01;0.47;68.49
75281;HTU21D;63874;47.230;39.620;2022-11-15T04:48:45;0.49;68.62
75281;HTU21D;63874;47.230;39.620;2022-11-15T04:51:30;0.55;68.57
75281;HTU21D;63874;47.230;39.620;2022-11-15T04:54:14;0.62;68.47
75281;HTU21D;63874;47.230;39.620;2022-11-15T04:56:59;0.69;68.23
75281;HTU21D;63874;47.230;39.620;2022-11-15T04:59:43;0.74;68.18
75281;HTU21D;63874;47.230;39.620;2022-11-15T05:02:28;0.81;68.14
75281;HTU21D;63874;47.230;39.620;2022-11-15T05:05:32;0.93;67.84
75281;HTU21D;63874;47.230;39.620;2022-11-15T05:08:17;0.94;67.81
75281;HTU21D;63874;47.230;39.620;2022-11-15T05:11:01;1.02;67.59
75281;HTU21D;63874;47.230;39.620;2022-11-15T05:13:49;1.07;67.39
75281;HTU21D;63874;47.230;39.620;2022-11-15T05:16:33;1.12;67.22
75281;HTU21D;63874;47.230;39.620;2022-11-15T05:19:18;1.14;67.14
75281;HTU21D;63874;47.230;39.620;2022-11-15T05:22:03;1.14;67.27
75281;HTU21D;63874;47.230;39.620;2022-11-15T05:24:47;1.18;67.28
75281;HTU21D;63874;47.230;39.620;2022-11-15T05:27:33;1.24;67.04
75281;HTU21D;63874;47.230;39.620;2022-11-15T05:30:17;1.31;66.98
75281;HTU21D;63874;47.230;39.620;2022-11-15T05:33:02;1.35;67.01
75281;HTU21D;63874;47.230;39.620;2022-11-15T05:35:53;1.41;66.96
75281;HTU21D;63874;47.230;39.620;2022-11-15T05:38:39;1.51;66.59
75281;HTU21D;63874;47.230;39.620;2022-11-15T05:41:25;1.57;65.91
75281;HTU21D;63874;47.230;39.620;2022-11-15T05:44:13;1.58;66.27
75281;HTU21D;63874;47.230;39.620;2022-11-15T05:46:59;1.61;66.40
75281;HTU21D;63874;47.230;39.620;2022-11-15T05:49:44;1.67;66.50
75281;HTU21D;63874;47.230;39.620;2022-11-15T05:52:31;1.73;66.24
75281;HTU21D;63874;47.230;39.620;2022-11-15T05:55:17;1.81;65.99
75281;HTU21D;63874;47.230;39.620;2022-11-15T05:58:01;1.86;65.85
75281;HTU21D;63874;47.230;39.620;2022-11-15T06:00:46;1.93;65.65
75281;HTU21D;63874;47.230;39.620;2022-11-15T06:03:31;1.97;65.62
75281;HTU21D;63874;47.230;39.620;2022-11-15T06:06:15;2.01;65.98
75281;HTU21D;63874;47.230;39.620;2022-11-15T06:08:59;2.06;66.13
75281;HTU21D;63874;47.230;39.620;2022-11-15T06:11:44;2.17;65.97
75281;HTU21D;63874;47.230;39.620;2022-11-15T06:14:28;2.27;65.86
75281;HTU21D;63874;47.230;39.620;2022-11-15T06:17:13;2.37;65.53
75281;HTU21D;63874;47.230;39.620;2022-11-15T06:19:57;2.44;65.79
75281;HTU21D;63874;47.230;39.620;2022-11-15T06:22:42;2.53;65.71
75281;HTU21D;63874;47.230;39.620;2022-11-15T06:25:27;2.62;65.14
75281;HTU21D;63874;47.230;39.620;2022-11-15T06:28:12;2.70;64.87
75281;HTU21D;63874;47.230;39.620;2022-11-15T06:31:04;2.75;64.69
75281;HTU21D;63874;47.230;39.620;2022-11-15T06:33:49;2.84;64.37
75281;HTU21D;63874;47.230;39.620;2022-11-15T06:36:37;2.90;64.09
75281;HTU21D;63874;47.230;39.620;2022-11-15T06:39:21;2.97;63.49
75281;HTU21D;63874;47.230;39.620;2022-11-15T06:42:08;3.02;63.55
75281;HTU21D;63874;47.230;39.620;2022-11-15T06:44:52;3.12;63.21
75281;HTU21D;63874;47.230;39.620;2022-11-15T06:47:47;3.21;62.70
75281;HTU21D;63874;47.230;39.620;2022-11-15T06:50:32;3.29;61.89
75281;HTU21D;63874;47.230;39.620;2022-11-15T06:53:16;3.29;61.47
75281;HTU21D;63874;47.230;39.620;2022-11-15T06:56:04;3.34;61.57
75281;HTU21D;63874;47.230;39.620;2022-11-15T06:58:49;3.38;61.55
75281;HTU21D;63874;47.230;39.620;2022-11-15T07:01:34;3.44;61.68
75281;HTU21D;63874;47.230;39.620;2022-11-15T07:04:18;3.54;61.38
75281;HTU21D;63874;47.230;39.620;2022-11-15T07:07:03;3.59;60.78
75281;HTU21D;63874;47.230;39.620;2022-11-15T07:09:47;3.63;60.53
75281;HTU21D;63874;47.230;39.620;2022-11-15T07:12:32;3.70;60.12
75281;HTU21D;63874;47.230;39.620;2022-11-15T07:15:17;3.72;60.02
75281;HTU21D;63874;47.230;39.620;2022-11-15T07:18:02;3.78;59.84
75281;HTU21D;63874;47.230;39.620;2022-11-15T07:20:46;3.84;59.98
75281;HTU21D;63874;47.230;39.620;2022-11-15T07:23:31;3.89;60.04
75281;HTU21D;63874;47.230;39.620;2022-11-15T07:26:15;3.97;60.34
75281;HTU21D;63874;47.230;39.620;2022-11-15T07:29:00;4.04;60.01
75281;HTU21D;63874;47.230;39.620;2022-11-15T07:31:44;4.16;59.87
75281;HTU21D;63874;47.230;39.620;2022-11-15T07:34:29;4.21;59.51
75281;HTU21D;63874;47.230;39.620;2022-11-15T07:37:13;4.31;59.17
75281;HTU21D;63874;47.230;39.620;2022-11-15T07:39:58;4.34;59.02
75281;HTU21D;63874;47.230;39.620;2022-11-15T07:42:42;4.43;58.36
75281;HTU21D;63874;47.230;39.620;2022-11-15T07:45:44;4.48;57.80
75281;HTU21D;63874;47.230;39.620;2022-11-15T07:48:29;4.53;57.80
75281;HTU21D;63874;47.230;39.620;2022-11-15T07:51:15;4.58;57.75
75281;HTU21D;63874;47.230;39.620;2022-11-15T07:54:00;4.62;56.97
75281;HTU21D;63874;47.230;39.620;2022-11-15T07:56:44;4.65;56.93
75281;HTU21D;63874;47.230;39.620;2022-11-15T07:59:29;4.69;57.20
75281;HTU21D;63874;47.230;39.620;2022-11-15T08:02:13;4.77;56.47
75281;HTU21D;63874;47.230;39.620;2022-11-15T08:05:00;4.86;56.01
75281;HTU21D;63874;47.230;39.620;2022-11-15T08:07:44;4.86;55.81
75281;HTU21D;63874;47.230;39.620;2022-11-15T08:10:29;4.90;56.46
75281;HTU21D;63874;47.230;39.620;2022-11-15T08:13:13;4.96;56.24
75281;HTU21D;63874;47.230;39.620;2022-11-15T08:15:59;5.06;56.16
75281;HTU21D;63874;47.230;39.620;2022-11-15T08:18:44;5.21;55.32
75281;HTU21D;63874;47.230;39.620;2022-11-15T08:21:28;5.26;55.39
75281;HTU21D;63874;47.230;39.620;2022-11-15T08:24:13;5.35;54.37
75281;HTU21D;63874;47.230;39.620;2022-11-15T08:26:58;5.43;54.58
75281;HTU21D;63874;47.230;39.620;2022-11-15T08:29:43;5.50;55.08
75281;HTU21D;63874;47.230;39.620;2022-11-15T08:32:28;5.66;55.24
75281;HTU21D;63874;47.230;39.620;2022-11-15T08:35:14;5.83;55.16
75281;HTU21D;63874;47.230;39.620;2022-11-15T08:37:58;5.95;55.39
75281;HTU21D;63874;47.230;39.620;2022-11-15T08:40:42;6.14;54.24
75281;HTU21D;63874;47.230;39.620;2022-11-15T08:43:27;6.23;54.52
75281;HTU21D;63874;47.230;39.620;2022-11-15T08:46:13;6.36;54.26
75281;HTU21D;63874;47.230;39.620;2022-11-15T08:48:58;6.46;53.34
75281;HTU21D;63874;47.230;39.620;2022-11-15T08:51:42;6.54;53.39
75281;HTU21D;63874;47.230;39.620;2022-11-15T08:54:27;6.69;53.39
75281;HTU21D;63874;47.230;39.620;2022-11-15T08:57:11;6.95;52.65
75281;HTU21D;63874;47.230;39.620;2022-11-15T08:59:56;7.65;51.88
75281;HTU21D;63874;47.230;39.620;2022-11-15T09:02:40;8.70;48.58
75281;HTU21D;63874;47.230;39.620;2022-11-15T09:05:25;9.75;47.15
75281;HTU21D;63874;47.230;39.620;2022-11-15T09:08:10;10.94;45.64
75281;HTU21D;63874;47.230;39.620;2022-11-15T09:10:56;11.87;43.14
75281;HTU21D;63874;47.230;39.620;2022-11-15T09:13:41;12.56;42.54
75281;HTU21D;63874;47.230;39.620;2022-11-15T09:16:25;13.49;39.27
75281;HTU21D;63874;47.230;39.620;2022-11-15T09:19:12;14.55;39.82
75281;HTU21D;63874;47.230;39.620;2022-11-15T09:21:58;15.22;37.16
75281;HTU21D;63874;47.230;39.620;2022-11-15T09:24:43;16.05;35.19
75281;HTU21D;63874;47.230;39.620;2022-11-15T09:27:31;16.58;33.89
75281;HTU21D;63874;47.230;39.620;2022-11-15T09:30:15;16.67;32.48
75281;HTU21D;63874;47.230;39.620;2022-11-15T09:33:07;16.94;32.40
75281;HTU21D;63874;47.230;39.620;2022-11-15T09:35:51;17.59;31.93
75281;HTU21D;63874;47.230;39.620;2022-11-15T09:38:36;18.13;30.29
75281;HTU21D;63874;47.230;39.620;2022-11-15T09:44:44;18.70;29.28
75281;HTU21D;63874;47.230;39.620;2022-11-15T09:51:17;19.32;27.15
75281;HTU21D;63874;47.230;39.620;2022-11-15T09:53:48;19.72;27.27
75281;HTU21D;63874;47.230;39.620;2022-11-15T10:04:45;20.27;25.20
75281;HTU21D;63874;47.230;39.620;2022-11-15T10:07:23;20.42;24.80
75281;HTU21D;63874;47.230;39.620;2022-11-15T10:12:37;21.28;23.92
75281;HTU21D;63874;47.230;39.620;2022-11-15T10:15:09;21.46;23.33
75281;HTU21D;63874;47.230;39.620;2022-11-15T10:20:34;21.57;21.00
75281;HTU21D;63874;47.230;39.620;2022-11-15T10:23:11;21.36;22.57
75281;HTU21D;63874;47.230;39.620;2022-11-15T10:25:38;21.45;22.60
75281;HTU21D;63874;47.230;39.620;2022-11-15T10:28:27;21.77;21.80
75281;HTU21D;63874;47.230;39.620;2022-11-15T10:30:58;21.90;21.42
75281;HTU21D;63874;47.230;39.620;2022-11-15T10:33:37;21.45;21.44
75281;HTU21D;63874;47.230;39.620;2022-11-15T10:44:17;20.29;21.37
75281;HTU21D;63874;47.230;39.620;2022-11-15T10:46:47;19.97;22.16
75281;HTU21D;63874;47.230;39.620;2022-11-15T10:49:20;19.69;22.55
75281;HTU21D;63874;47.230;39.620;2022-11-15T10:51:55;19.56;22.49
75281;HTU21D;63874;47.230;39.620;2022-11-15T10:54:28;19.32;22.16
75281;HTU21D;63874;47.230;39.620;2022-11-15T10:56:57;18.44;23.05
75281;HTU21D;63874;47.230;39.620;2022-11-15T10:59:30;17.18;24.04
75281;HTU21D;63874;47.230;39.620;2022-11-15T11:01:57;15.77;25.43
75281;HTU21D;63874;47.230;39.620;2022-11-15T11:04:23;14.51;26.62
75281;HTU21D;63874;47.230;39.620;2022-11-15T11:06:53;13.37;27.73
75281;HTU21D;63874;47.230;39.620;2022-11-15T11:09:28;12.34;29.07
75281;HTU21D;63874;47.230;39.620;2022-11-15T11:11:54;11.56;30.31
75281;HTU21D;63874;47.230;39.620;2022-11-15T11:14:25;11.02;31.18
75281;HTU21D;63874;47.230;39.620;2022-11-15T11:17:06;10.51;32.25
75281;HTU21D;63874;47.230;39.620;2022-11-15T11:23:17;9.61;34.04
75281;HTU21D;63874;47.230;39.620;2022-11-15T11:26:00;9.09;34.82
75281;HTU21D;63874;47.230;39.620;2022-11-15T11:47:51;7.50;39.84
75281;HTU21D;63874;47.230;39.620;2022-11-15T11:50:24;7.43;40.30
75281;HTU21D;63874;47.230;39.620;2022-11-15T11:52:58;7.32;40.67
75281;HTU21D;63874;47.230;39.620;2022-11-15T12:00:52;7.09;41.45
75281;HTU21D;63874;47.230;39.620;2022-11-15T12:03:39;6.99;41.55
75281;HTU21D;63874;47.230;39.620;2022-11-15T12:14:51;6.82;42.58
75281;HTU21D;63874;47.230;39.620;2022-11-15T12:17:23;6.79;42.93
75281;HTU21D;63874;47.230;39.620;2022-11-15T12:20:37;6.78;42.98
75281;HTU21D;63874;47.230;39.620;2022-11-15T12:22:57;6.74;42.92
75281;HTU21D;63874;47.230;39.620;2022-11-15T12:31:03;6.53;43.46
75281;HTU21D;63874;47.230;39.620;2022-11-15T12:33:41;6.51;43.74
75281;HTU21D;63874;47.230;39.620;2022-11-15T12:36:32;6.51;43.77
75281;HTU21D;63874;47.230;39.620;2022-11-15T12:39:06;6.50;43.87
75281;HTU21D;63874;47.230;39.620;2022-11-15T12:41:41;6.44;43.95
75281;HTU21D;63874;47.230;39.620;2022-11-15T13:02:40;6.16;44.95
75281;HTU21D;63874;47.230;39.620;2022-11-15T13:17:42;5.91;45.80
75281;HTU21D;63874;47.230;39.620;2022-11-15T13:22:51;5.82;45.95
75281;HTU21D;63874;47.230;39.620;2022-11-15T13:27:52;5.70;46.30
75281;HTU21D;63874;47.230;39.620;2022-11-15T13:30:29;5.66;46.41
75281;HTU21D;63874;47.230;39.620;2022-11-15T13:32:56;5.59;46.56
75281;HTU21D;63874;47.230;39.620;2022-11-15T13:35:28;5.54;46.70
75281;HTU21D;63874;47.230;39.620;2022-11-15T13:37:56;5.50;46.88
75281;HTU21D;63874;47.230;39.620;2022-11-15T13:40:33;5.46;46.87
75281;HTU21D;63874;47.230;39.620;2022-11-15T13:48:30;5.31;47.12
75281;HTU21D;63874;47.230;39.620;2022-11-15T13:50:57;5.24;47.15
75281;HTU21D;63874;47.230;39.620;2022-11-15T13:53:23;5.23;47.13
75281;HTU21D;63874;47.230;39.620;2022-11-15T13:55:50;5.19;47.16
75281;HTU21D;63874;47.230;39.620;2022-11-15T13:58:17;5.17;47.14
75281;HTU21D;63874;47.230;39.620;2022-11-15T14:00:45;5.11;47.18
75281;HTU21D;63874;47.230;39.620;2022-11-15T14:03:17;5.07;47.23
75281;HTU21D;63874;47.230;39.620;2022-11-15T14:05:58;5.02;47.32
75281;HTU21D;63874;47.230;39.620;2022-11-15T14:08:27;5.00;47.34
75281;HTU21D;63874;47.230;39.620;2022-11-15T14:13:34;4.90;47.44
75281;HTU21D;63874;47.230;39.620;2022-11-15T14:16:18;4.82;47.52
75281;HTU21D;63874;47.230;39.620;2022-11-15T14:21:12;4.77;47.60
75281;HTU21D;63874;47.230;39.620;2022-11-15T14:23:38;4.75;47.70
75281;HTU21D;63874;47.230;39.620;2022-11-15T14:26:04;4.71;47.79
75281;HTU21D;63874;47.230;39.620;2022-11-15T14:28:32;4.65;47.91
75281;HTU21D;63874;47.230;39.620;2022-11-15T14:31:10;4.62;48.04
75281;HTU21D;63874;47.230;39.620;2022-11-15T14:33:37;4.62;48.12
75281;HTU21D;63874;47.230;39.620;2022-11-15T14:36:13;4.59;48.25
75281;HTU21D;63874;47.230;39.620;2022-11-15T14:38:40;4.57;48.38
75281;HTU21D;63874;47.230;39.620;2022-11-15T14:43:43;4.50;48.57
75281;HTU21D;63874;47.230;39.620;2022-11-15T14:46:09;4.45;48.76
75281;HTU21D;63874;47.230;39.620;2022-11-15T14:48:35;4.43;48.89
75281;HTU21D;63874;47.230;39.620;2022-11-15T14:51:02;4.38;49.08
75281;HTU21D;63874;47.230;39.620;2022-11-15T14:53:31;4.39;49.18
75281;HTU21D;63874;47.230;39.620;2022-11-15T14:55:57;4.35;49.29
75281;HTU21D;63874;47.230;39.620;2022-11-15T14:58:23;4.34;49.38
75281;HTU21D;63874;47.230;39.620;2022-11-15T15:00:48;4.33;49.43
75281;HTU21D;63874;47.230;39.620;2022-11-15T15:03:15;4.29;49.53
75281;HTU21D;63874;47.230;39.620;2022-11-15T15:05:42;4.24;49.55
75281;HTU21D;63874;47.230;39.620;2022-11-15T15:08:09;4.21;49.66
75281;HTU21D;63874;47.230;39.620;2022-11-15T15:10:38;4.18;49.73
75281;HTU21D;63874;47.230;39.620;2022-11-15T15:13:05;4.13;49.91
75281;HTU21D;63874;47.230;39.620;2022-11-15T15:15:36;4.13;50.07
75281;HTU21D;63874;47.230;39.620;2022-11-15T15:18:04;4.12;50.12
75281;HTU21D;63874;47.230;39.620;2022-11-15T15:20:31;4.14;50.19
75281;HTU21D;63874;47.230;39.620;2022-11-15T15:22:57;4.10;50.22
75281;HTU21D;63874;47.230;39.620;2022-11-15T15:25:34;4.08;50.32
75281;HTU21D;63874;47.230;39.620;2022-11-15T15:28:01;4.03;50.47
75281;HTU21D;63874;47.230;39.620;2022-11-15T15:30:30;4.00;50.62
75281;HTU21D;63874;47.230;39.620;2022-11-15T15:32:56;3.97;50.75
75281;HTU21D;63874;47.230;39.620;2022-11-15T15:35:22;3.97;50.87
75281;HTU21D;63874;47.230;39.620;2022-11-15T15:37:48;3.95;50.83
75281;HTU21D;63874;47.230;39.620;2022-11-15T15:40:20;3.94;50.95
75281;HTU21D;63874;47.230;39.620;2022-11-15T15:42:47;3.89;50.99
75281;HTU21D;63874;47.230;39.620;2022-11-15T15:45:14;3.89;50.94
75281;HTU21D;63874;47.230;39.620;2022-11-15T15:47:40;3.88;50.91
75281;HTU21D;63874;47.230;39.620;2022-11-15T15:52:52;3.86;50.90
75281;HTU21D;63874;47.230;39.620;2022-11-15T15:55:19;3.82;50.85
75281;HTU21D;63874;47.230;39.620;2022-11-15T15:57:45;3.79;50.76
75281;HTU21D;63874;47.230;39.620;2022-11-15T16:00:12;3.76;50.69
75281;HTU21D;63874;47.230;39.620;2022-11-15T16:02:39;3.75;50.61
75281;HTU21D;63874;47.230;39.620;2022-11-15T16:05:05;3.73;50.60
75281;HTU21D;63874;47.230;39.620;2022-11-15T16:07:31;3.71;50.53
75281;HTU21D;63874;47.230;39.620;2022-11-15T16:09:57;3.68;50.56
75281;HTU21D;63874;47.230;39.620;2022-11-15T16:12:30;3.67;50.48
75281;HTU21D;63874;47.230;39.620;2022-11-15T16:14:56;3.63;50.57
75281;HTU21D;63874;47.230;39.620;2022-11-15T16:17:26;3.61;50.54
75281;HTU21D;63874;47.230;39.620;2022-11-15T16:19:52;3.58;50.72
75281;HTU21D;63874;47.230;39.620;2022-11-15T16:22:18;3.56;50.79
75281;HTU21D;63874;47.230;39.620;2022-11-15T16:24:44;3.52;50.93
75281;HTU21D;63874;47.230;39.620;2022-11-15T16:27:12;3.50;51.01
75281;HTU21D;63874;47.230;39.620;2022-11-15T16:29:39;3.45;51.17
75281;HTU21D;63874;47.230;39.620;2022-11-15T16:32:05;3.41;51.45
75281;HTU21D;63874;47.230;39.620;2022-11-15T16:34:31;3.33;51.51
75281;HTU21D;63874;47.230;39.620;2022-11-15T16:36:57;3.27;51.73
75281;HTU21D;63874;47.230;39.620;2022-11-15T16:39:23;3.29;51.84
75281;HTU21D;63874;47.230;39.620;2022-11-15T16:41:48;3.27;51.91
75281;HTU21D;63874;47.230;39.620;2022-11-15T16:44:14;3.25;51.90
75281;HTU21D;63874;47.230;39.620;2022-11-15T16:46:41;3.21;52.04
75281;HTU21D;63874;47.230;39.620;2022-11-15T16:49:14;3.21;52.14
75281;HTU21D;63874;47.230;39.620;2022-11-15T16:51:40;3.20;52.24
75281;HTU21D;63874;47.230;39.620;2022-11-15T16:54:07;3.14;52.24
75281;HTU21D;63874;47.230;39.620;2022-11-15T16:56:33;3.09;52.46
75281;HTU21D;63874;47.230;39.620;2022-11-15T16:59:00;3.11;52.58
75281;HTU21D;63874;47.230;39.620;2022-11-15T17:01:31;3.12;52.66
75281;HTU21D;63874;47.230;39.620;2022-11-15T17:03:58;3.15;52.59
75281;HTU21D;63874;47.230;39.620;2022-11-15T17:06:25;3.13;52.59
75281;HTU21D;63874;47.230;39.620;2022-11-15T17:08:51;3.13;52.62
75281;HTU21D;63874;47.230;39.620;2022-11-15T17:11:20;3.13;52.56
75281;HTU21D;63874;47.230;39.620;2022-11-15T17:13:46;3.11;52.57
75281;HTU21D;63874;47.230;39.620;2022-11-15T17:16:15;3.08;52.62
75281;HTU21D;63874;47.230;39.620;2022-11-15T17:18:41;3.08;52.69
75281;HTU21D;63874;47.230;39.620;2022-11-15T17:21:15;3.05;52.66
75281;HTU21D;63874;47.230;39.620;2022-11-15T17:23:42;3.05;52.67
75281;HTU21D;63874;47.230;39.620;2022-11-15T17:26:10;3.05;52.64
75281;HTU21D;63874;47.230;39.620;2022-11-15T17:28:36;3.08;52.42
75281;HTU21D;63874;47.230;39.620;2022-11-15T17:31:06;3.03;52.53
75281;HTU21D;63874;47.230;39.620;2022-11-15T17:33:32;2.98;52.62
75281;HTU21D;63874;47.230;39.620;2022-11-15T17:35:59;2.97;52.60
75281;HTU21D;63874;47.230;39.620;2022-11-15T17:38:26;2.93;52.60
75281;HTU21D;63874;47.230;39.620;2022-11-15T17:41:03;2.91;52.65
75281;HTU21D;63874;47.230;39.620;2022-11-15T17:43:31;2.89;52.66
75281;HTU21D;63874;47.230;39.620;2022-11-15T17:45:58;2.88;52.56
75281;HTU21D;63874;47.230;39.620;2022-11-15T17:48:25;2.88;52.55
75281;HTU21D;63874;47.230;39.620;2022-11-15T17:51:02;2.89;52.42
75281;HTU21D;63874;47.230;39.620;2022-11-15T17:53:34;2.90;52.19
75281;HTU21D;63874;47.230;39.620;2022-11-15T17:56:02;2.86;52.24
75281;HTU21D;63874;47.230;39.620;2022-11-15T17:58:29;2.84;52.29
75281;HTU21D;63874;47.230;39.620;2022-11-15T18:00:55;2.80;52.39
75281;HTU21D;63874;47.230;39.620;2022-11-15T18:03:29;2.78;52.40
75281;HTU21D;63874;47.230;39.620;2022-11-15T18:05:57;2.78;52.36
75281;HTU21D;63874;47.230;39.620;2022-11-15T18:08:23;2.78;52.24
75281;HTU21D;63874;47.230;39.620;2022-11-15T18:10:49;2.73;52.33
75281;HTU21D;63874;47.230;39.620;2022-11-15T18:13:14;2.67;52.43
75281;HTU21D;63874;47.230;39.620;2022-11-15T18:15:40;2.58;52.71
75281;HTU21D;63874;47.230;39.620;2022-11-15T18:18:06;2.55;52.86
75281;HTU21D;63874;47.230;39.620;2022-11-15T18:20:32;2.50;52.97
75281;HTU21D;63874;47.230;39.620;2022-11-15T18:22:58;2.44;53.10
75281;HTU21D;63874;47.230;39.620;2022-11-15T18:25:24;2.40;53.20
75281;HTU21D;63874;47.230;39.620;2022-11-15T18:27:50;2.37;53.25
75281;HTU21D;63874;47.230;39.620;2022-11-15T18:30:20;2.36;53.27
75281;HTU21D;63874;47.230;39.620;2022-11-15T18:32:46;2.37;53.27
75281;HTU21D;63874;47.230;39.620;2022-11-15T18:35:11;2.39;53.30
75281;HTU21D;63874;47.230;39.620;2022-11-15T18:37:37;2.38;53.38
75281;HTU21D;63874;47.230;39.620;2022-11-15T18:40:03;2.35;53.46
75281;HTU21D;63874;47.230;39.620;2022-11-15T18:42:29;2.36;53.50
75281;HTU21D;63874;47.230;39.620;2022-11-15T18:44:57;2.35;53.52
75281;HTU21D;63874;47.230;39.620;2022-11-15T18:47:23;2.36;53.59
75281;HTU21D;63874;47.230;39.620;2022-11-15T18:49:49;2.29;53.62
75281;HTU21D;63874;47.230;39.620;2022-11-15T18:52:15;2.30;53.68
75281;HTU21D;63874;47.230;39.620;2022-11-15T18:54:40;2.29;53.75
75281;HTU21D;63874;47.230;39.620;2022-11-15T18:57:06;2.29;53.77
75281;HTU21D;63874;47.230;39.620;2022-11-15T18:59:32;2.24;53.91